Time,TemperatureC,DewpointC,PressurehPa,WindDirection,WindDirectionDegrees,WindSpeedKMH,WindSpeedGustKMH,Humidity,HourlyPrecipMM,Conditions,Clouds,dailyrainMM,SolarRadiationWatts/m^2,UVIndex,SoftwareType,DateUTC
2020-09-28 00:04:55,13.1,11,1008.9,NE,40,0,0,87,0.0,,,0.0,0,0,n/a,2020-09-27T22:04:55Z
2020-09-28 00:09:49,13.1,11,1009.0,NE,40,0,0,87,0.0,,,0.0,0,0,n/a,2020-09-27T22:09:49Z
2020-09-28 00:14:54,13.1,11,1009.0,NE,40,0,0,87,0.0,,,0.0,0,0,n/a,2020-09-27T22:14:54Z
2020-09-28 00:19:46,13.1,11,1009.1,NE,40,0,0,87,0.0,,,0.0,0,0,n/a,2020-09-27T22:19:46Z
2020-09-28 00:24:54,13.1,10.9,1009.1,NE,40,0,0,87,0.0,,,0.0,0,0,n/a,2020-09-27T22:24:54Z
2020-09-28 00:29:59,13.1,10.9,1009.0,NE,40,0,0,87,0.0,,,0.0,0,0,n/a,2020-09-27T22:29:59Z
2020-09-28 00:34:57,13.1,10.9,1009.1,NE,40,0,0,87,0.0,,,0.0,0,0,n/a,2020-09-27T22:34:57Z
2020-09-28 00:39:53,13,10.9,1009.0,NE,40,0,0,87,0.0,,,0.0,0,0,n/a,2020-09-27T22:39:53Z
2020-09-28 00:44:47,13,10.9,1009.0,NE,40,0,0,87.2,0.0,,,0.0,0,0,n/a,2020-09-27T22:44:47Z
2020-09-28 00:49:55,13,11,1009.0,NE,40,0,0,87.8,0.0,,,0.0,0,0,n/a,2020-09-27T22:49:55Z
2020-09-28 00:54:52,13,11.1,1009.0,NE,40,0,0,88,0.0,,,0.0,0,0,n/a,2020-09-27T22:54:52Z
2020-09-28 00:59:58,13,11.1,1009.0,NE,40,0,0,88,0.0,,,0.0,0,0,n/a,2020-09-27T22:59:58Z
2020-09-28 01:04:59,13,11.1,1009.0,NE,40,0,0,88,0.0,,,0.0,0,0,n/a,2020-09-27T23:04:59Z
2020-09-28 01:09:56,13,11.1,1009.0,NE,40,0,0,88,0.0,,,0.0,0,0,n/a,2020-09-27T23:09:56Z
2020-09-28 01:14:52,13,11.1,1009.0,NE,40,0,0,88,0.0,,,0.0,0,0,n/a,2020-09-27T23:14:52Z
2020-09-28 01:19:47,13,11.1,1008.9,NE,40,0,0,88,0.0,,,0.0,0,0,n/a,2020-09-27T23:19:47Z
2020-09-28 01:24:58,13,11.1,1008.9,NE,40,0,0,88,0.0,,,0.0,0,0,n/a,2020-09-27T23:24:58Z
2020-09-28 01:29:54,13,11,1008.9,NE,40,0,0,88,0.0,,,0.0,0,0,n/a,2020-09-27T23:29:54Z
2020-09-28 01:34:53,13,11,1008.9,NE,40,0,0,88,0.0,,,0.0,0,0,n/a,2020-09-27T23:34:53Z
2020-09-28 01:39:48,12.9,11,1009.0,NE,40,0,0,88,0.0,,,0.0,0,0,n/a,2020-09-27T23:39:48Z
2020-09-28 01:44:57,12.9,11,1009.0,NE,40,0,0,88,0.0,,,0.0,0,0,n/a,2020-09-27T23:44:57Z
2020-09-28 01:49:54,12.9,11,1009.0,NE,40,0,0,88,0.0,,,0.0,0,0,n/a,2020-09-27T23:49:54Z
2020-09-28 01:54:52,12.9,11,1009.0,NE,40,0,0,88,0.0,,,0.0,0,0,n/a,2020-09-27T23:54:52Z
2020-09-28 01:59:59,12.9,10.9,1009.1,NE,40,0,0,88,0.0,,,0.0,0,0,n/a,2020-09-27T23:59:59Z
2020-09-28 02:04:49,12.9,11,1009.1,NE,40,0,0,88.1,0.0,,,0.0,0,0,n/a,2020-09-28T00:04:49Z
2020-09-28 02:09:49,12.9,11.1,1009.2,NE,40,0,0,88.7,0.0,,,0.0,0,0,n/a,2020-09-28T00:09:49Z
2020-09-28 02:14:47,12.9,11,1009.2,NE,40,0,0,88.6,0.0,,,0.0,0,0,n/a,2020-09-28T00:14:47Z
2020-09-28 02:19:48,12.9,10.9,1009.2,NE,40,0,0,88,0.0,,,0.0,0,0,n/a,2020-09-28T00:19:48Z
2020-09-28 02:24:50,12.8,10.9,1009.1,NE,40,0,0,88,0.0,,,0.0,0,0,n/a,2020-09-28T00:24:50Z
2020-09-28 02:29:48,12.8,10.9,1009.1,NE,40,0,0,88.2,0.0,,,0.0,0,0,n/a,2020-09-28T00:29:48Z
2020-09-28 02:34:53,12.8,11.1,1009.1,NE,40,0,0,89,0.0,,,0.0,0,0,n/a,2020-09-28T00:34:53Z
2020-09-28 02:39:53,12.8,11.1,1009.0,NE,40,0,0,89,0.0,,,0.0,0,0,n/a,2020-09-28T00:39:53Z
2020-09-28 02:44:54,12.9,11.1,1008.9,NE,40,0,0,89,0.0,,,0.0,0,0,n/a,2020-09-28T00:44:54Z
2020-09-28 02:49:54,12.8,11.1,1008.9,NE,40,0,0,89,0.0,,,0.0,0,0,n/a,2020-09-28T00:49:54Z
2020-09-28 02:54:56,12.9,11.1,1008.9,NE,40,0,0,89,0.0,,,0.0,0,0,n/a,2020-09-28T00:54:56Z
2020-09-28 02:59:55,12.8,11.1,1008.8,NE,40,0,0,89,0.0,,,0.0,0,0,n/a,2020-09-28T00:59:55Z
2020-09-28 03:04:47,12.9,11.1,1008.9,NE,40,0,0,89,0.0,,,0.0,0,0,n/a,2020-09-28T01:04:47Z
2020-09-28 03:09:48,12.9,11.1,1008.8,NE,40,0,0,89,0.0,,,0.0,0,0,n/a,2020-09-28T01:09:48Z
2020-09-28 03:14:49,12.9,11.1,1008.9,NE,40,0,0,89,0.0,,,0.0,0,0,n/a,2020-09-28T01:14:49Z
2020-09-28 03:19:50,12.9,11.1,1008.8,NE,40,0,0,89,0.0,,,0.0,0,0,n/a,2020-09-28T01:19:50Z
2020-09-28 03:24:53,12.9,11.1,1008.9,NE,40,0,0,89,0.0,,,0.0,0,0,n/a,2020-09-28T01:24:53Z
2020-09-28 03:29:53,12.9,11.1,1008.9,NE,40,0,0,89,0.0,,,0.0,0,0,n/a,2020-09-28T01:29:53Z
2020-09-28 03:34:58,12.9,11.1,1008.8,NE,40,0,0,89,0.0,,,0.0,0,0,n/a,2020-09-28T01:34:58Z
2020-09-28 03:39:48,12.9,11.1,1008.9,NE,40,0,0,89,0.0,,,0.0,0,0,n/a,2020-09-28T01:39:48Z
2020-09-28 03:44:53,12.9,11.1,1008.9,NE,40,0,0,89,0.0,,,0.0,0,0,n/a,2020-09-28T01:44:53Z
2020-09-28 03:49:57,12.9,11.1,1008.8,NE,40,0,0,89,0.0,,,0.0,0,0,n/a,2020-09-28T01:49:57Z
2020-09-28 03:54:49,12.9,11.1,1008.8,NE,40,0,0,89,0.0,,,0.0,0,0,n/a,2020-09-28T01:54:49Z
2020-09-28 03:59:53,12.9,11.1,1008.8,NE,40,0,0,89,0.0,,,0.0,0,0,n/a,2020-09-28T01:59:53Z
2020-09-28 04:04:49,12.9,11.1,1008.7,NE,43,0,0,89,0.0,,,0.0,0,0,n/a,2020-09-28T02:04:49Z
2020-09-28 04:09:55,12.9,11.2,1008.7,NE,43,0,0,89,0.0,,,0.0,0,0,n/a,2020-09-28T02:09:55Z
2020-09-28 04:14:59,12.9,11.2,1008.6,NE,43,0,0,89,0.0,,,0.0,0,0,n/a,2020-09-28T02:14:59Z
2020-09-28 04:19:51,13,11.2,1008.6,NE,43,0,0,89,0.0,,,0.0,0,0,n/a,2020-09-28T02:19:51Z
2020-09-28 04:24:57,13,11.5,1008.6,NE,44,0,0,90.5,0.0,,,0.0,0,0,n/a,2020-09-28T02:24:57Z
2020-09-28 04:29:47,13,11.3,1008.6,East,88,0,0,89.1,0.0,,,0.0,0,0,n/a,2020-09-28T02:29:47Z
2020-09-28 04:34:57,13.1,11.3,1008.6,East,92,0,0,89,0.0,,,0.0,0,0,n/a,2020-09-28T02:34:57Z
2020-09-28 04:39:52,13.1,11.3,1008.6,East,93,0,0,89,0.0,,,0.0,0,0,n/a,2020-09-28T02:39:52Z
2020-09-28 04:44:48,13.2,11.4,1008.6,East,94,0,0,89,0.0,,,0.0,0,0,n/a,2020-09-28T02:44:48Z
2020-09-28 04:49:56,13.2,11.4,1008.6,East,94,0,0,89,0.0,,,0.0,0,0,n/a,2020-09-28T02:49:56Z
2020-09-28 04:54:53,13.2,11.4,1008.6,East,95,0,0,89,0.0,,,0.0,0,0,n/a,2020-09-28T02:54:53Z
2020-09-28 04:59:59,13.3,11.4,1008.6,East,96,0,0,88.5,0.0,,,0.0,0,0,n/a,2020-09-28T02:59:59Z
2020-09-28 05:04:50,13.3,11.3,1008.6,East,96,0,0,88,0.0,,,0.0,0,0,n/a,2020-09-28T03:04:50Z
2020-09-28 05:09:47,13.3,11.5,1008.6,East,98,0,0,88.8,0.0,,,0.0,0,0,n/a,2020-09-28T03:09:47Z
2020-09-28 05:14:47,13.3,11.4,1008.6,ESE,103,3,5.5,88.2,0.0,,,0.0,0,0,n/a,2020-09-28T03:14:47Z
2020-09-28 05:19:58,13.3,11.4,1008.6,ESE,104,5.8,8,88,0.0,,,0.0,0,0,n/a,2020-09-28T03:19:58Z
2020-09-28 05:24:57,13.3,11.4,1008.6,ESE,105,5.9,8,88,0.0,,,0.0,0,0,n/a,2020-09-28T03:24:57Z
2020-09-28 05:29:54,13.4,11.4,1008.5,ESE,107,5.4,8,88,0.0,,,0.0,0,0,n/a,2020-09-28T03:29:54Z
2020-09-28 05:34:57,13.4,11.4,1008.5,ESE,116,6.5,8,88,0.0,,,0.0,0,0,n/a,2020-09-28T03:34:57Z
2020-09-28 05:39:56,13.4,11.4,1008.5,ESE,115,6.6,8,88,0.0,,,0.0,0,0,n/a,2020-09-28T03:39:56Z
2020-09-28 05:44:58,13.4,11.4,1008.5,ESE,116,6.7,8,88,0.0,,,0.0,0,0,n/a,2020-09-28T03:44:58Z
2020-09-28 05:49:56,13.3,11.4,1008.5,ESE,118,7.3,8,88,0.0,,,0.0,0,0,n/a,2020-09-28T03:49:56Z
2020-09-28 05:54:59,13.3,11.4,1008.5,SSE,154,9.3,9.7,88,0.0,,,0.0,0,0,n/a,2020-09-28T03:54:59Z
2020-09-28 05:59:49,13.3,11.3,1008.5,South,184,6.5,9.7,88,0.0,,,0.0,0,0,n/a,2020-09-28T03:59:49Z
2020-09-28 06:04:57,13.2,11.3,1008.5,South,185,7.7,8,88,0.0,,,0.0,0,0,n/a,2020-09-28T04:04:57Z
2020-09-28 06:09:58,13.2,11.3,1008.4,South,186,6.8,9.7,88,0.0,,,0.0,0,0,n/a,2020-09-28T04:09:58Z
2020-09-28 06:14:59,13.2,11.2,1008.3,South,188,8,8,88,0.0,,,0.0,0,0,n/a,2020-09-28T04:14:59Z
2020-09-28 06:19:49,13.2,11.2,1008.2,SSW,192,8,9.7,88,0.0,,,0.0,0,0,n/a,2020-09-28T04:19:49Z
2020-09-28 06:24:57,13.1,11.2,1008.2,SSW,207,8.4,9.7,88,0.0,,,0.0,0,0,n/a,2020-09-28T04:24:57Z
2020-09-28 06:29:58,13.1,11.2,1008.2,SSW,194,12.4,11.6,88,0.0,,,0.0,0,0,n/a,2020-09-28T04:29:58Z
2020-09-28 06:34:56,13.1,11.2,1008.2,South,190,10.1,14.5,88.3,0.0,,,0.0,0,0,n/a,2020-09-28T04:34:56Z
2020-09-28 06:39:56,13.1,11.3,1008.2,South,188,7.2,12.9,89,0.0,,,0.0,0,0,n/a,2020-09-28T04:39:56Z
2020-09-28 06:44:56,13.1,11.3,1008.2,South,188,7.3,9.7,89,0.2,,,0.4,0,0,n/a,2020-09-28T04:44:56Z